Time;durP1;ratioP1;P1;durP2;ratioP2;P2;SDS_P1;SDS_P2;PMS_P1;PMS_P2;Temp;Humidity;BMP_temperature;BMP_pressure;BME280_temperature;BME280_humidity;BME280_pressure;Samples;Min_cycle;Max_cycle;Signal;HPM_P1;HPM_P2
2022/09/24 00:00:16;;;;;;;22.80;11.32;;;;;;;;;;5045581;28;20025;-66
2022/09/24 00:02:41;;;;;;;33.83;12.70;;;;;;;;;;5029522;28;20029;-68
2022/09/24 00:05:06;;;;;;;29.67;13.75;;;;;;;;;;5032065;28;20017;-67
2022/09/24 00:07:32;;;;;;;23.77;11.95;;;;;;;;;;5030798;28;20061;-65
2022/09/24 00:09:57;;;;;;;24.85;11.30;;;;;;;;;;5034504;28;20418;-68
2022/09/24 00:12:22;;;;;;;20.73;11.55;;;;;;;;;;5030685;28;20510;-66
2022/09/24 00:14:47;;;;;;;25.73;11.57;;;;;;;;;;5030186;28;20467;-66
2022/09/24 00:17:12;;;;;;;27.23;11.23;;;;;;;;;;5030037;28;20028;-66
2022/09/24 00:19:38;;;;;;;24.15;12.85;;;;;;;;;;5031711;28;20071;-67
2022/09/24 00:22:03;;;;;;;27.50;13.15;;;;;;;;;;5030101;28;20063;-66
2022/09/24 00:27:12;;;;;;;42.88;13.52;;;;;;;;;;5031192;28;20079;-67
2022/09/24 00:29:37;;;;;;;30.70;14.20;;;;;;;;;;5031963;28;20099;-65
2022/09/24 00:32:04;;;;;;;33.55;14.05;;;;;;;;;;5029931;28;20350;-66
2022/09/24 00:34:29;;;;;;;30.35;14.80;;;;;;;;;;5033903;28;20021;-67
2022/09/24 00:36:55;;;;;;;30.77;13.93;;;;;;;;;;5023139;28;20033;-66
2022/09/24 00:39:20;;;;;;;45.38;15.65;;;;;;;;;;5033406;28;20017;-65
2022/09/24 00:41:47;;;;;;;38.75;14.52;;;;;;;;;;5031878;28;20439;-65
2022/09/24 00:44:31;;;;;;;36.97;13.52;;;;;;;;;;5027648;28;20018;-67
2022/09/24 00:46:57;;;;;;;34.15;13.07;;;;;;;;;;5028464;28;20029;-66
2022/09/24 00:49:23;;;;;;;27.00;12.50;;;;;;;;;;5032456;28;20181;-66
2022/09/24 00:51:50;;;;;;;27.83;13.50;;;;;;;;;;5028455;28;20124;-66
2022/09/24 00:54:17;;;;;;;22.70;11.75;;;;;;;;;;5027998;28;20075;-68
2022/09/24 00:56:43;;;;;;;23.13;12.60;;;;;;;;;;5030516;28;20021;-66
2022/09/24 00:59:10;;;;;;;26.67;12.45;;;;;;;;;;5037592;28;20040;-66
2022/09/24 01:01:38;;;;;;;19.30;11.23;;;;;;;;;;5042234;28;20010;-67
2022/09/24 01:04:05;;;;;;;28.45;12.02;;;;;;;;;;5033073;28;20411;-67
2022/09/24 01:06:30;;;;;;;26.85;12.25;;;;;;;;;;5029424;28;20029;-67
2022/09/24 01:08:56;;;;;;;22.65;12.02;;;;;;;;;;5032295;28;20613;-67
2022/09/24 01:11:39;;;;;;;22.17;11.45;;;;;;;;;;5032673;28;20029;-67
2022/09/24 01:14:16;;;;;;;25.50;11.73;;;;;;;;;;5033001;28;20425;-65
2022/09/24 01:17:00;;;;;;;24.30;12.15;;;;;;;;;;5030498;28;20104;-67
2022/09/24 01:19:28;;;;;;;25.77;11.73;;;;;;;;;;5038034;28;20096;-66
2022/09/24 01:21:56;;;;;;;29.17;12.17;;;;;;;;;;5032709;28;20018;-67
2022/09/24 01:24:24;;;;;;;23.70;12.00;;;;;;;;;;5034604;28;20018;-65
2022/09/24 01:26:54;;;;;;;30.20;11.80;;;;;;;;;;5030783;28;20084;-67
2022/09/24 01:29:32;;;;;;;28.52;11.73;;;;;;;;;;5033207;28;20067;-69
2022/09/24 01:32:09;;;;;;;21.90;10.50;;;;;;;;;;5028761;28;20097;-66
2022/09/24 01:34:42;;;;;;;21.20;11.45;;;;;;;;;;5036105;28;20049;-68
2022/09/24 01:37:08;;;;;;;24.23;11.02;;;;;;;;;;5048924;28;20432;-66
2022/09/24 01:39:34;;;;;;;25.98;11.60;;;;;;;;;;5032230;28;20540;-69
2022/09/24 01:42:00;;;;;;;23.23;10.18;;;;;;;;;;5036343;28;20106;-66
2022/09/24 01:44:25;;;;;;;22.20;11.38;;;;;;;;;;5033550;28;20025;-68
2022/09/24 01:46:51;;;;;;;21.50;10.63;;;;;;;;;;5036149;28;20048;-65
2022/09/24 01:49:16;;;;;;;26.25;10.95;;;;;;;;;;5039607;28;20056;-67
2022/09/24 01:51:54;;;;;;;21.13;10.70;;;;;;;;;;5029226;28;20029;-68
2022/09/24 01:54:22;;;;;;;24.30;11.15;;;;;;;;;;5021828;28;20022;-67
2022/09/24 01:56:50;;;;;;;31.00;11.53;;;;;;;;;;5036109;28;20065;-67
2022/09/24 01:59:22;;;;;;;24.20;10.13;;;;;;;;;;5038252;28;20051;-67
2022/09/24 02:01:55;;;;;;;20.45;10.88;;;;;;;;;;5048757;28;20813;-68
2022/09/24 02:04:23;;;;;;;21.65;10.75;;;;;;;;;;5035874;28;20155;-67
2022/09/24 02:06:51;;;;;;;21.58;10.45;;;;;;;;;;5027005;28;20045;-66
2022/09/24 02:09:36;;;;;;;19.92;10.65;;;;;;;;;;5024597;28;20048;-65
2022/09/24 02:12:17;;;;;;;23.02;10.88;;;;;;;;;;5028420;28;20467;-67
2022/09/24 02:14:54;;;;;;;24.33;10.23;;;;;;;;;;5029702;28;20024;-65
2022/09/24 02:17:21;;;;;;;20.30;9.93;;;;;;;;;;5027990;28;20083;-66
2022/09/24 02:19:47;;;;;;;18.75;10.32;;;;;;;;;;5028622;28;20476;-66
2022/09/24 02:22:13;;;;;;;18.77;10.20;;;;;;;;;;5029008;28;20104;-68
2022/09/24 02:24:42;;;;;;;23.23;10.73;;;;;;;;;;5027702;28;20109;-67
2022/09/24 02:27:07;;;;;;;20.90;9.23;;;;;;;;;;5027581;28;20120;-67
2022/09/24 02:29:32;;;;;;;28.48;11.50;;;;;;;;;;5015937;28;20116;-66
2022/09/24 02:31:58;;;;;;;20.40;10.70;;;;;;;;;;5027387;28;20052;-65
2022/09/24 02:34:30;;;;;;;24.38;11.55;;;;;;;;;;5027498;28;20509;-67
2022/09/24 02:37:02;;;;;;;19.13;9.25;;;;;;;;;;5027658;28;20021;-65
2022/09/24 02:39:27;;;;;;;20.23;9.50;;;;;;;;;;5026601;28;20045;-66
2022/09/24 02:41:53;;;;;;;22.85;9.77;;;;;;;;;;5027271;28;20060;-67
2022/09/24 02:44:18;;;;;;;24.27;8.93;;;;;;;;;;5027737;28;20024;-67
2022/09/24 02:46:45;;;;;;;25.75;10.30;;;;;;;;;;5029026;28;20025;-68
2022/09/24 02:49:11;;;;;;;19.23;9.50;;;;;;;;;;5027063;28;20605;-66
2022/09/24 02:51:36;;;;;;;24.08;9.85;;;;;;;;;;5028273;28;20089;-68
2022/09/24 02:54:01;;;;;;;18.95;9.15;;;;;;;;;;5026420;28;20065;-66
2022/09/24 02:56:27;;;;;;;21.65;9.40;;;;;;;;;;5031099;28;20017;-67
2022/09/24 02:58:52;;;;;;;16.88;8.68;;;;;;;;;;5028706;28;20129;-68
2022/09/24 03:01:18;;;;;;;18.33;9.38;;;;;;;;;;5026622;28;20029;-67
2022/09/24 03:03:43;;;;;;;19.63;9.43;;;;;;;;;;5034915;28;20039;-64
2022/09/24 03:06:11;;;;;;;15.07;8.48;;;;;;;;;;5046966;28;20066;-67
2022/09/24 03:08:36;;;;;;;20.70;9.77;;;;;;;;;;5027661;28;20021;-66
2022/09/24 03:11:01;;;;;;;21.17;9.73;;;;;;;;;;5028411;28;20121;-66
2022/09/24 03:13:26;;;;;;;18.30;8.98;;;;;;;;;;5019437;28;20041;-66
2022/09/24 03:15:51;;;;;;;24.52;10.30;;;;;;;;;;5022735;28;20048;-66
2022/09/24 03:18:17;;;;;;;19.60;9.80;;;;;;;;;;5030387;28;20093;-66
2022/09/24 03:20:42;;;;;;;21.00;9.60;;;;;;;;;;5030661;28;20732;-68
2022/09/24 03:23:07;;;;;;;22.00;9.75;;;;;;;;;;5028319;28;20511;-64
2022/09/24 03:25:32;;;;;;;22.33;10.23;;;;;;;;;;5028948;28;20018;-67
2022/09/24 03:27:57;;;;;;;22.05;9.30;;;;;;;;;;5026960;28;20045;-67
2022/09/24 03:33:07;;;;;;;21.48;8.85;;;;;;;;;;5031549;28;20025;-66
2022/09/24 03:35:32;;;;;;;17.33;8.50;;;;;;;;;;5039384;28;20016;-65
2022/09/24 03:37:57;;;;;;;13.07;7.57;;;;;;;;;;5034571;28;20067;-66
2022/09/24 03:40:23;;;;;;;18.40;8.82;;;;;;;;;;5022000;28;20493;-68
2022/09/24 03:42:48;;;;;;;17.70;8.25;;;;;;;;;;5038653;28;20064;-65
2022/09/24 03:45:14;;;;;;;18.42;9.20;;;;;;;;;;5028501;28;20037;-66
2022/09/24 03:47:41;;;;;;;19.98;9.07;;;;;;;;;;5035441;28;20040;-65
2022/09/24 03:50:07;;;;;;;16.73;8.90;;;;;;;;;;5039488;28;20036;-66
2022/09/24 03:52:32;;;;;;;15.77;7.97;;;;;;;;;;5039124;28;20032;-66
2022/09/24 03:54:58;;;;;;;19.65;8.27;;;;;;;;;;5031007;28;20526;-66
2022/09/24 03:57:23;;;;;;;21.77;8.77;;;;;;;;;;5024925;28;20113;-67
2022/09/24 03:59:48;;;;;;;24.70;9.98;;;;;;;;;;5036562;28;20029;-66
2022/09/24 04:02:13;;;;;;;27.20;9.13;;;;;;;;;;5053241;28;20020;-67
2022/09/24 04:04:38;;;;;;;17.33;8.60;;;;;;;;;;5052609;28;20474;-66
2022/09/24 04:07:04;;;;;;;18.65;8.85;;;;;;;;;;5034620;28;20028;-67
2022/09/24 04:09:29;;;;;;;18.85;9.10;;;;;;;;;;5034544;28;20087;-65
2022/09/24 04:11:55;;;;;;;18.60;8.85;;;;;;;;;;5045490;28;20044;-67
2022/09/24 04:14:20;;;;;;;24.48;8.55;;;;;;;;;;5026921;28;20042;-67
2022/09/24 04:16:45;;;;;;;22.42;7.90;;;;;;;;;;5032233;28;20037;-67
2022/09/24 04:19:11;;;;;;;21.83;9.60;;;;;;;;;;5032293;28;20013;-66
2022/09/24 04:21:36;;;;;;;15.77;8.65;;;;;;;;;;5041205;28;20025;-67
2022/09/24 04:24:02;;;;;;;17.48;8.82;;;;;;;;;;5039478;28;20839;-66
2022/09/24 04:26:27;;;;;;;19.83;9.18;;;;;;;;;;5033983;28;20471;-65
2022/09/24 04:28:52;;;;;;;19.17;9.15;;;;;;;;;;5032374;28;20537;-64
2022/09/24 04:31:18;;;;;;;18.13;9.02;;;;;;;;;;5034844;28;20038;-65
2022/09/24 04:33:43;;;;;;;18.35;8.93;;;;;;;;;;5034452;28;20101;-68
2022/09/24 04:36:09;;;;;;;24.63;10.70;;;;;;;;;;5025200;28;20101;-66
2022/09/24 04:38:34;;;;;;;17.25;8.52;;;;;;;;;;5021226;28;20544;-67
2022/09/24 04:41:03;;;;;;;20.40;10.07;;;;;;;;;;5033241;28;20474;-66
2022/09/24 04:43:29;;;;;;;17.23;9.63;;;;;;;;;;5037343;28;20026;-65
2022/09/24 04:45:55;;;;;;;20.95;9.70;;;;;;;;;;5043872;28;20018;-67
2022/09/24 04:48:22;;;;;;;18.55;9.52;;;;;;;;;;5030367;28;20018;-66
2022/09/24 04:50:48;;;;;;;18.25;9.20;;;;;;;;;;5039136;22;20136;-65
2022/09/24 04:53:13;;;;;;;27.05;10.32;;;;;;;;;;5010421;28;20117;-67
2022/09/24 04:55:40;;;;;;;16.40;8.90;;;;;;;;;;5011288;28;20077;-65
2022/09/24 04:58:05;;;;;;;20.38;10.35;;;;;;;;;;5011513;28;20078;-68
2022/09/24 05:00:32;;;;;;;21.13;9.70;;;;;;;;;;5011610;28;20440;-66
2022/09/24 05:02:58;;;;;;;20.85;9.48;;;;;;;;;;5011691;28;20045;-65
2022/09/24 05:05:24;;;;;;;22.90;10.90;;;;;;;;;;5008693;28;20025;-67
2022/09/24 05:07:50;;;;;;;25.00;11.50;;;;;;;;;;5008525;28;20446;-66
2022/09/24 05:10:15;;;;;;;22.73;11.18;;;;;;;;;;5008765;28;20057;-66
2022/09/24 05:12:40;;;;;;;21.92;9.65;;;;;;;;;;5011357;28;20468;-68
2022/09/24 05:15:06;;;;;;;22.27;11.65;;;;;;;;;;5009646;28;20028;-67
2022/09/24 05:17:31;;;;;;;18.90;10.05;;;;;;;;;;5010678;28;20033;-65
2022/09/24 05:20:00;;;;;;;18.00;10.43;;;;;;;;;;5009884;28;20014;-68
2022/09/24 05:22:28;;;;;;;21.70;10.60;;;;;;;;;;5008672;28;20442;-68
2022/09/24 05:24:54;;;;;;;20.17;9.90;;;;;;;;;;5010880;28;20632;-67
2022/09/24 05:27:20;;;;;;;19.63;9.77;;;;;;;;;;5009600;28;20094;-69
2022/09/24 05:29:46;;;;;;;24.52;10.98;;;;;;;;;;5010777;28;20024;-68
2022/09/24 05:32:13;;;;;;;22.92;9.77;;;;;;;;;;5010723;28;20025;-68
2022/09/24 05:34:40;;;;;;;31.75;12.68;;;;;;;;;;5015262;28;20097;-66
2022/09/24 05:37:05;;;;;;;23.35;11.35;;;;;;;;;;5008977;28;20025;-67
2022/09/24 05:39:30;;;;;;;25.10;11.88;;;;;;;;;;5010985;28;20093;-67
2022/09/24 05:41:56;;;;;;;20.15;10.73;;;;;;;;;;5013222;28;20018;-68
2022/09/24 05:44:21;;;;;;;22.48;9.82;;;;;;;;;;5009291;28;20030;-66
2022/09/24 05:46:47;;;;;;;19.17;10.50;;;;;;;;;;5007251;28;20022;-66
2022/09/24 05:49:12;;;;;;;20.13;10.73;;;;;;;;;;5010544;28;20022;-67
2022/09/24 05:51:37;;;;;;;20.02;10.32;;;;;;;;;;5010867;28;20061;-66
2022/09/24 05:54:03;;;;;;;19.08;10.32;;;;;;;;;;5010379;28;20387;-68
2022/09/24 05:56:28;;;;;;;24.48;10.38;;;;;;;;;;5008349;28;20030;-66
2022/09/24 05:58:53;;;;;;;28.02;11.07;;;;;;;;;;5008779;28;20022;-69
2022/09/24 06:01:19;;;;;;;26.63;11.15;;;;;;;;;;5010326;28;20034;-65
2022/09/24 06:03:44;;;;;;;26.98;11.13;;;;;;;;;;5008323;28;20030;-67
2022/09/24 06:06:09;;;;;;;16.83;9.43;;;;;;;;;;5008433;28;20028;-67
2022/09/24 06:08:34;;;;;;;15.77;9.38;;;;;;;;;;5008091;28;20090;-67
2022/09/24 06:11:01;;;;;;;28.08;10.18;;;;;;;;;;5008467;28;20027;-65
2022/09/24 06:13:27;;;;;;;23.20;10.30;;;;;;;;;;5003988;28;20499;-65
2022/09/24 06:15:52;;;;;;;19.00;9.80;;;;;;;;;;5010207;28;20112;-67
2022/09/24 06:18:17;;;;;;;30.13;10.65;;;;;;;;;;5007206;28;20010;-68
2022/09/24 06:20:43;;;;;;;25.08;10.38;;;;;;;;;;5006494;28;20774;-67
2022/09/24 06:23:08;;;;;;;24.85;9.65;;;;;;;;;;5003385;28;20816;-68
2022/09/24 06:25:33;;;;;;;16.30;8.35;;;;;;;;;;5016871;28;20042;-69
2022/09/24 06:28:00;;;;;;;27.13;9.77;;;;;;;;;;5006671;28;20018;-66
2022/09/24 06:30:26;;;;;;;19.73;8.48;;;;;;;;;;5007684;28;20033;-64
2022/09/24 06:32:51;;;;;;;16.98;8.38;;;;;;;;;;5010153;28;20018;-66
2022/09/24 06:35:16;;;;;;;15.75;8.95;;;;;;;;;;5009699;28;20099;-65
2022/09/24 06:37:42;;;;;;;15.23;8.82;;;;;;;;;;5008761;28;20036;-67
2022/09/24 06:40:07;;;;;;;18.52;9.35;;;;;;;;;;5008863;28;20025;-66
2022/09/24 06:42:33;;;;;;;19.25;9.13;;;;;;;;;;5009978;28;20396;-66
2022/09/24 06:44:58;;;;;;;19.73;7.93;;;;;;;;;;5010345;28;20026;-66
2022/09/24 06:47:23;;;;;;;17.20;8.82;;;;;;;;;;5007141;28;20282;-67
2022/09/24 06:49:49;;;;;;;19.23;9.45;;;;;;;;;;5009958;28;20045;-68
2022/09/24 06:52:15;;;;;;;28.02;8.50;;;;;;;;;;5002627;28;20022;-65
2022/09/24 06:54:40;;;;;;;21.88;9.18;;;;;;;;;;5010640;28;20010;-67
2022/09/24 06:57:05;;;;;;;27.33;8.38;;;;;;;;;;5019598;28;20021;-68
2022/09/24 06:59:30;;;;;;;22.17;9.05;;;;;;;;;;5014369;28;20037;-67
2022/09/24 07:01:57;;;;;;;24.33;10.07;;;;;;;;;;5023801;28;20100;-67
2022/09/24 07:04:22;;;;;;;21.95;9.13;;;;;;;;;;5009855;28;20406;-68
2022/09/24 07:07:33;;;;;;;18.02;9.00;;;;;;;;;;5007906;28;20033;-67
2022/09/24 07:09:33;;;;;;;18.40;9.60;;;;;;;;;;5005304;28;20037;-68
2022/09/24 07:12:00;;;;;;;18.88;9.18;;;;;;;;;;5007910;28;20024;-67
2022/09/24 07:14:25;;;;;;;16.42;8.13;;;;;;;;;;5000886;28;20034;-67
2022/09/24 07:16:52;;;;;;;16.60;8.70;;;;;;;;;;5003623;28;20018;-66
2022/09/24 07:19:18;;;;;;;19.52;9.65;;;;;;;;;;5015309;28;20104;-67
2022/09/24 07:21:43;;;;;;;17.52;8.52;;;;;;;;;;5010859;28;20110;-67
2022/09/24 07:24:08;;;;;;;25.17;8.70;;;;;;;;;;5008839;28;20101;-67
2022/09/24 07:26:33;;;;;;;19.77;8.88;;;;;;;;;;5008182;28;20030;-69
2022/09/24 07:28:58;;;;;;;17.27;9.00;;;;;;;;;;5008707;28;20045;-70
2022/09/24 07:31:25;;;;;;;18.77;8.40;;;;;;;;;;5009434;28;20030;-69
2022/09/24 07:33:51;;;;;;;18.88;8.02;;;;;;;;;;5011030;28;20059;-68
2022/09/24 07:36:16;;;;;;;15.32;8.18;;;;;;;;;;5008145;28;20442;-66
2022/09/24 07:38:42;;;;;;;21.40;10.52;;;;;;;;;;5008671;28;20284;-68
2022/09/24 07:41:08;;;;;;;19.35;7.45;;;;;;;;;;5008394;28;20014;-68
2022/09/24 07:43:33;;;;;;;18.80;9.05;;;;;;;;;;5009127;28;20014;-66
2022/09/24 07:45:59;;;;;;;17.50;7.90;;;;;;;;;;5007879;28;20451;-69
2022/09/24 07:48:24;;;;;;;19.33;8.80;;;;;;;;;;5007373;28;20259;-67
2022/09/24 07:50:50;;;;;;;18.25;8.00;;;;;;;;;;5007829;28;20030;-67
2022/09/24 07:53:15;;;;;;;20.80;8.75;;;;;;;;;;5008364;28;20044;-69
2022/09/24 07:55:41;;;;;;;16.15;7.68;;;;;;;;;;5004130;28;20638;-67
2022/09/24 07:58:07;;;;;;;21.80;9.60;;;;;;;;;;5007034;28;20466;-65
2022/09/24 08:00:33;;;;;;;17.50;7.82;;;;;;;;;;5007952;28;20010;-68
2022/09/24 08:03:00;;;;;;;15.73;8.73;;;;;;;;;;5009105;28;20420;-67
2022/09/24 08:05:25;;;;;;;24.20;9.10;;;;;;;;;;5007414;28;20030;-67
2022/09/24 08:07:54;;;;;;;19.40;7.70;;;;;;;;;;5006345;28;20037;-66
2022/09/24 08:10:19;;;;;;;20.55;8.77;;;;;;;;;;5001517;28;20057;-67
2022/09/24 08:12:45;;;;;;;20.02;8.40;;;;;;;;;;5006816;28;20085;-65
2022/09/24 08:15:10;;;;;;;15.80;7.97;;;;;;;;;;5008137;28;20029;-68
2022/09/24 08:17:35;;;;;;;13.60;6.90;;;;;;;;;;5006785;28;20277;-68
2022/09/24 08:20:00;;;;;;;16.05;7.18;;;;;;;;;;5009530;28;20239;-68
2022/09/24 08:22:25;;;;;;;18.40;7.20;;;;;;;;;;5010684;28;20026;-67
2022/09/24 08:24:52;;;;;;;15.82;7.45;;;;;;;;;;5012242;28;20113;-67
2022/09/24 08:27:22;;;;;;;24.70;7.90;;;;;;;;;;5007939;28;20100;-67
2022/09/24 08:29:47;;;;;;;16.00;7.25;;;;;;;;;;5011241;28;20021;-68
2022/09/24 08:32:13;;;;;;;17.50;7.07;;;;;;;;;;5009126;28;20116;-67
2022/09/24 08:34:39;;;;;;;14.68;7.15;;;;;;;;;;5008437;28;20045;-67
2022/09/24 08:37:04;;;;;;;16.75;6.70;;;;;;;;;;5010000;28;20033;-66
2022/09/24 08:39:30;;;;;;;22.70;7.50;;;;;;;;;;5010693;28;20072;-68
2022/09/24 08:41:56;;;;;;;21.45;7.05;;;;;;;;;;5007873;28;20105;-68
2022/09/24 08:47:35;;;;;;;18.08;7.88;;;;;;;;;;5010740;28;20033;-67
2022/09/24 08:50:08;;;;;;;14.82;6.35;;;;;;;;;;5010985;28;20080;-68
2022/09/24 08:52:43;;;;;;;14.80;7.28;;;;;;;;;;5011290;28;20025;-68
2022/09/24 08:55:20;;;;;;;15.10;6.82;;;;;;;;;;5010821;28;20030;-67
2022/09/24 08:58:04;;;;;;;13.45;6.78;;;;;;;;;;5009419;28;20025;-67
2022/09/24 09:00:30;;;;;;;24.85;7.50;;;;;;;;;;5010871;28;20018;-65
2022/09/24 09:03:22;;;;;;;18.00;6.53;;;;;;;;;;5003685;28;20092;-65
2022/09/24 09:05:54;;;;;;;18.65;7.97;;;;;;;;;;5004489;28;20026;-65
2022/09/24 09:08:28;;;;;;;19.55;7.07;;;;;;;;;;5010648;28;20067;-65
2022/09/24 09:10:57;;;;;;;13.82;6.55;;;;;;;;;;5002791;28;20022;-65
2022/09/24 09:13:28;;;;;;;21.77;7.63;;;;;;;;;;5010380;28;20072;-67
2022/09/24 09:16:02;;;;;;;18.85;9.38;;;;;;;;;;5011834;28;20018;-66
2022/09/24 09:18:36;;;;;;;14.25;6.65;;;;;;;;;;5010365;28;20010;-66
2022/09/24 09:21:25;;;;;;;13.05;6.32;;;;;;;;;;5011614;28;20104;-65
2022/09/24 09:23:51;;;;;;;16.75;6.90;;;;;;;;;;5005529;28;20038;-67
2022/09/24 09:26:17;;;;;;;18.27;7.35;;;;;;;;;;5007936;28;20399;-66
2022/09/24 09:28:43;;;;;;;14.98;7.25;;;;;;;;;;5011009;28;20030;-67
2022/09/24 09:31:18;;;;;;;18.80;7.00;;;;;;;;;;5010964;28;20044;-66
2022/09/24 09:33:49;;;;;;;14.90;7.30;;;;;;;;;;5015733;28;20060;-67
2022/09/24 09:36:33;;;;;;;13.18;6.63;;;;;;;;;;5009044;28;20501;-65
2022/09/24 09:38:58;;;;;;;18.58;7.00;;;;;;;;;;5008235;28;20018;-65
2022/09/24 09:41:26;;;;;;;17.52;6.95;;;;;;;;;;5007751;28;20044;-65
2022/09/24 09:43:54;;;;;;;16.60;7.35;;;;;;;;;;5011912;28;20672;-66
2022/09/24 09:46:22;;;;;;;18.00;6.97;;;;;;;;;;5003918;28;20037;-67
2022/09/24 09:48:51;;;;;;;12.30;6.53;;;;;;;;;;5009327;28;20025;-67
2022/09/24 09:51:19;;;;;;;12.90;6.68;;;;;;;;;;5008550;28;20046;-71
2022/09/24 09:53:45;;;;;;;;;;;;;;;;;;5009964;28;20056;-70
2022/09/24 09:56:11;;;;;;;16.00;6.38;;;;;;;;;;5005842;28;19952;-69
2022/09/24 09:58:46;;;;;;;15.93;7.20;;;;;;;;;;5009648;28;20026;-70
2022/09/24 10:01:14;;;;;;;13.50;6.80;;;;;;;;;;5010952;28;20392;-65
2022/09/24 10:03:45;;;;;;;15.65;7.90;;;;;;;;;;5009161;28;20090;-70
2022/09/24 10:06:11;;;;;;;14.75;6.82;;;;;;;;;;5009585;28;20026;-67
2022/09/24 10:08:37;;;;;;;12.50;7.25;;;;;;;;;;5010492;28;20160;-66
2022/09/24 10:11:02;;;;;;;13.88;6.95;;;;;;;;;;5009962;28;20097;-68
2022/09/24 10:13:30;;;;;;;17.25;6.95;;;;;;;;;;5004674;28;20030;-67
2022/09/24 10:15:58;;;;;;;11.07;6.45;;;;;;;;;;5009554;28;20018;-69
2022/09/24 10:18:27;;;;;;;18.70;7.13;;;;;;;;;;5009013;28;20014;-69
2022/09/24 10:20:53;;;;;;;19.58;7.57;;;;;;;;;;5009947;28;20116;-69
2022/09/24 10:23:23;;;;;;;17.40;8.32;;;;;;;;;;5009860;28;20018;-68
2022/09/24 10:25:50;;;;;;;15.27;7.60;;;;;;;;;;5002828;28;20052;-69
2022/09/24 10:31:09;;;;;;;18.05;7.18;;;;;;;;;;5005667;28;20095;-69
2022/09/24 10:33:35;;;;;;;20.88;7.63;;;;;;;;;;5011577;28;20048;-67
2022/09/24 10:36:04;;;;;;;19.45;8.00;;;;;;;;;;5010210;28;20017;-69
2022/09/24 10:38:30;;;;;;;22.20;8.55;;;;;;;;;;5009143;28;20026;-66
2022/09/24 10:40:56;;;;;;;17.30;6.20;;;;;;;;;;5009337;28;20658;-67
2022/09/24 10:43:21;;;;;;;17.00;7.30;;;;;;;;;;5009164;28;20094;-68
2022/09/24 10:45:54;;;;;;;14.27;7.03;;;;;;;;;;5008341;28;20087;-66
2022/09/24 10:48:19;;;;;;;13.27;7.00;;;;;;;;;;5008373;28;20037;-68
2022/09/24 10:50:57;;;;;;;16.27;6.78;;;;;;;;;;5024267;23;20129;-72
2022/09/24 10:53:37;;;;;;;13.15;5.97;;;;;;;;;;5032637;28;20025;-71
2022/09/24 10:56:02;;;;;;;13.95;7.70;;;;;;;;;;5027929;28;20061;-72
2022/09/24 10:58:33;;;;;;;15.63;6.22;;;;;;;;;;5028505;28;20044;-72
2022/09/24 11:01:37;;;;;;;15.00;7.70;;;;;;;;;;5025005;28;20030;-72
2022/09/24 11:04:05;;;;;;;12.82;6.93;;;;;;;;;;4986915;28;20030;-71
2022/09/24 11:06:48;;;;;;;15.10;7.10;;;;;;;;;;4984597;28;20030;-72
2022/09/24 11:09:19;;;;;;;11.80;6.65;;;;;;;;;;4998313;28;20029;-72
2022/09/24 11:11:50;;;;;;;10.98;5.32;;;;;;;;;;5017485;28;20079;-70
2022/09/24 11:14:43;;;;;;;11.30;6.18;;;;;;;;;;5028469;28;20038;-69
2022/09/24 11:17:32;;;;;;;11.73;5.90;;;;;;;;;;5031710;28;20014;-71
2022/09/24 11:19:57;;;;;;;;;;;;;;;;;;4981708;28;20119;-72
2022/09/24 11:22:45;;;;;;;14.60;6.93;;;;;;;;;;5009339;28;19948;-70
2022/09/24 11:25:17;;;;;;;14.80;6.97;;;;;;;;;;5009287;28;20026;-73
2022/09/24 11:28:21;;;;;;;14.63;7.10;;;;;;;;;;5009136;28;20029;-73
2022/09/24 11:30:46;;;;;;;16.58;7.80;;;;;;;;;;4948637;28;20524;-73
2022/09/24 11:33:11;;;;;;;15.37;7.57;;;;;;;;;;4931666;29;20027;-71
2022/09/24 11:35:55;;;;;;;15.60;6.77;;;;;;;;;;4969073;28;20263;-72
2022/09/24 11:38:29;;;;;;;18.65;6.82;;;;;;;;;;5009190;28;20263;-72
2022/09/24 11:40:57;;;;;;;12.43;6.10;;;;;;;;;;4997273;28;20121;-71
2022/09/24 11:43:35;;;;;;;12.63;6.10;;;;;;;;;;5009935;28;20128;-70
2022/09/24 11:46:06;;;;;;;17.02;6.20;;;;;;;;;;5010452;28;20038;-73
2022/09/24 11:48:47;;;;;;;15.50;6.68;;;;;;;;;;5013425;28;20029;-72
2022/09/24 11:51:12;;;;;;;10.30;5.68;;;;;;;;;;5020504;28;20117;-72
2022/09/24 11:53:43;;;;;;;10.57;5.20;;;;;;;;;;5008928;28;20101;-72
2022/09/24 11:56:12;;;;;;;9.60;4.53;;;;;;;;;;5003338;28;20267;-72
2022/09/24 11:58:41;;;;;;;11.00;6.07;;;;;;;;;;5024934;28;20025;-72
2022/09/24 12:01:12;;;;;;;9.52;4.88;;;;;;;;;;5014590;28;20113;-73
2022/09/24 12:03:41;;;;;;;9.90;5.50;;;;;;;;;;5032378;28;20029;-72
2022/09/24 12:06:09;;;;;;;10.90;4.82;;;;;;;;;;5017062;28;20057;-72
2022/09/24 12:08:37;;;;;;;10.13;4.90;;;;;;;;;;5013309;28;20388;-73
2022/09/24 12:11:05;;;;;;;8.75;4.38;;;;;;;;;;5027982;28;20392;-72
2022/09/24 12:13:35;;;;;;;12.50;5.25;;;;;;;;;;5021733;28;20041;-71
2022/09/24 12:16:18;;;;;;;12.40;4.35;;;;;;;;;;5026210;28;20022;-70
2022/09/24 12:18:51;;;;;;;10.07;4.03;;;;;;;;;;5013063;28;20159;-70
2022/09/24 12:21:19;;;;;;;10.88;3.42;;;;;;;;;;5012725;28;20022;-72
2022/09/24 12:23:45;;;;;;;9.50;5.05;;;;;;;;;;5026196;28;20021;-70
2022/09/24 12:26:15;;;;;;;11.70;5.97;;;;;;;;;;5011288;28;20744;-72
2022/09/24 12:34:49;;;;;;;11.13;5.35;;;;;;;;;;5006780;28;20403;-71
2022/09/24 12:37:15;;;;;;;10.48;5.88;;;;;;;;;;5015243;28;20135;-71
2022/09/24 12:39:46;;;;;;;9.57;5.75;;;;;;;;;;5021002;28;20045;-72
2022/09/24 12:42:12;;;;;;;18.73;6.57;;;;;;;;;;5011224;28;20419;-73
2022/09/24 12:44:56;;;;;;;11.52;5.28;;;;;;;;;;5012136;28;20561;-71
2022/09/24 12:47:23;;;;;;;17.60;6.03;;;;;;;;;;5019413;28;20033;-72
2022/09/24 12:49:56;;;;;;;11.60;5.75;;;;;;;;;;5012597;28;20022;-72
2022/09/24 12:52:27;;;;;;;13.52;5.15;;;;;;;;;;5012043;28;20033;-70
2022/09/24 12:54:54;;;;;;;18.38;5.68;;;;;;;;;;5012006;28;20010;-71
2022/09/24 12:57:24;;;;;;;10.52;5.82;;;;;;;;;;5010400;28;20041;-72
2022/09/24 12:59:53;;;;;;;14.45;6.55;;;;;;;;;;5011957;28;20072;-72
2022/09/24 13:02:20;;;;;;;12.80;4.72;;;;;;;;;;5020864;28;20024;-72
2022/09/24 13:04:50;;;;;;;19.38;6.00;;;;;;;;;;5031041;28;20017;-71
2022/09/24 13:07:27;;;;;;;14.65;6.00;;;;;;;;;;5016557;28;20435;-73
2022/09/24 13:09:53;;;;;;;14.52;5.88;;;;;;;;;;4999105;28;20022;-71
2022/09/24 13:12:31;;;;;;;10.25;6.05;;;;;;;;;;5011289;28;20529;-71
2022/09/24 13:14:57;;;;;;;12.60;5.07;;;;;;;;;;5019921;28;20009;-69
2022/09/24 13:17:22;;;;;;;9.52;4.70;;;;;;;;;;5030908;28;20412;-73
2022/09/24 13:19:48;;;;;;;13.98;5.57;;;;;;;;;;5031234;28;20099;-69
2022/09/24 13:22:20;;;;;;;12.45;5.82;;;;;;;;;;5016740;28;20046;-70
2022/09/24 13:24:46;;;;;;;10.80;5.40;;;;;;;;;;5012173;28;20030;-71
2022/09/24 13:27:29;;;;;;;8.48;4.75;;;;;;;;;;5023456;28;20022;-73
2022/09/24 13:30:14;;;;;;;10.13;4.47;;;;;;;;;;5011348;28;20021;-72
2022/09/24 13:33:00;;;;;;;15.73;4.93;;;;;;;;;;5013088;28;20034;-69
2022/09/24 13:35:30;;;;;;;11.13;5.10;;;;;;;;;;5021910;28;20022;-70
2022/09/24 13:38:01;;;;;;;14.65;5.93;;;;;;;;;;5020487;28;20025;-69
2022/09/24 13:40:30;;;;;;;11.25;5.10;;;;;;;;;;5008676;28;20384;-71
2022/09/24 13:43:01;;;;;;;14.00;5.88;;;;;;;;;;5019399;28;20022;-73
2022/09/24 13:45:27;;;;;;;12.20;5.28;;;;;;;;;;5013175;28;20502;-71
2022/09/24 13:47:53;;;;;;;16.03;5.40;;;;;;;;;;5010545;28;20033;-72
2022/09/24 13:50:22;;;;;;;16.90;6.03;;;;;;;;;;5010695;28;20275;-72
2022/09/24 13:52:51;;;;;;;8.73;4.50;;;;;;;;;;5008890;28;20487;-71
2022/09/24 13:55:25;;;;;;;9.68;4.43;;;;;;;;;;5009666;28;20120;-71
2022/09/24 13:57:50;;;;;;;11.88;5.70;;;;;;;;;;5003778;28;20038;-71
2022/09/24 14:00:15;;;;;;;11.90;5.10;;;;;;;;;;5017655;28;20466;-74
2022/09/24 14:02:51;;;;;;;8.63;4.57;;;;;;;;;;5017220;28;20291;-73
2022/09/24 14:05:18;;;;;;;10.25;5.85;;;;;;;;;;5021873;28;20069;-69
2022/09/24 14:08:03;;;;;;;12.60;5.80;;;;;;;;;;5009478;28;20088;-71
2022/09/24 14:10:29;;;;;;;13.75;5.55;;;;;;;;;;5020624;28;20028;-73
2022/09/24 14:13:01;;;;;;;12.70;5.57;;;;;;;;;;5004442;28;20096;-73
2022/09/24 14:15:27;;;;;;;12.25;5.20;;;;;;;;;;5010392;28;20013;-71
2022/09/24 14:17:56;;;;;;;14.63;5.10;;;;;;;;;;5028122;28;20041;-72
2022/09/24 14:20:21;;;;;;;15.93;4.85;;;;;;;;;;5020754;28;20251;-71
2022/09/24 14:22:47;;;;;;;8.43;4.22;;;;;;;;;;5030980;28;20501;-71
2022/09/24 14:25:16;;;;;;;15.10;4.80;;;;;;;;;;5017588;28;20022;-72
2022/09/24 14:27:47;;;;;;;15.00;4.38;;;;;;;;;;5008991;28;20018;-71
2022/09/24 14:30:23;;;;;;;9.35;4.63;;;;;;;;;;5022929;28;20460;-73
2022/09/24 14:32:50;;;;;;;9.90;3.90;;;;;;;;;;5012252;28;20022;-73
2022/09/24 14:35:38;;;;;;;11.07;4.60;;;;;;;;;;5010479;28;20022;-71
2022/09/24 14:38:07;;;;;;;9.82;4.65;;;;;;;;;;5017680;28;20022;-73
2022/09/24 14:41:02;;;;;;;9.18;4.35;;;;;;;;;;5017670;28;20068;-73
2022/09/24 14:43:39;;;;;;;7.30;4.18;;;;;;;;;;5008229;28;20141;-73
2022/09/24 14:46:08;;;;;;;8.07;4.23;;;;;;;;;;5020423;28;20071;-70
2022/09/24 14:48:33;;;;;;;10.45;4.00;;;;;;;;;;5016831;28;20260;-71
2022/09/24 14:50:59;;;;;;;9.27;4.43;;;;;;;;;;5002152;28;20032;-73
2022/09/24 14:53:24;;;;;;;10.82;4.28;;;;;;;;;;5015520;28;20137;-73